Time;durP1;ratioP1;P1;durP2;ratioP2;P2;SDS_P1;SDS_P2;PMS_P1;PMS_P2;Temp;Humidity;BMP_temperature;BMP_pressure;BME280_temperature;BME280_humidity;BME280_pressure;Samples;Min_cycle;Max_cycle;Signal;HPM_P1;HPM_P2
2024/01/13 00:01:39;;;;;;;4.20;2.10;;;;;;;20.21;27.80;101512.02;103601;1288;62127;-78
2024/01/13 00:04:05;;;;;;;3.90;2.30;;;;;;;20.21;27.64;101513.79;103314;1289;62281;-77
2024/01/13 00:06:30;;;;;;;4.30;2.20;;;;;;;20.21;27.78;101517.71;103291;1299;63426;-79
2024/01/13 00:08:56;;;;;;;4.00;2.30;;;;;;;20.21;27.71;101516.64;103561;1285;62152;-78
2024/01/13 00:11:22;;;;;;;6.00;2.40;;;;;;;20.22;27.75;101523.94;103355;1289;62216;-78
2024/01/13 00:13:50;;;;;;;4.10;2.00;;;;;;;20.22;27.76;101532.33;103600;1288;62452;-79
2024/01/13 00:16:16;;;;;;;4.00;2.10;;;;;;;20.22;27.67;101534.63;103363;1289;72409;-81
2024/01/13 00:18:42;;;;;;;3.80;2.20;;;;;;;20.22;27.74;101534.83;103570;1283;63461;-78
2024/01/13 00:21:08;;;;;;;4.10;2.40;;;;;;;20.21;27.75;101536.11;103720;1286;62228;-77
2024/01/13 00:23:33;;;;;;;3.50;2.10;;;;;;;20.22;27.75;101538.39;103421;1289;62752;-78
2024/01/13 00:25:59;;;;;;;3.80;2.20;;;;;;;20.22;27.71;101538.21;103618;1289;62370;-79
2024/01/13 00:28:25;;;;;;;3.80;2.30;;;;;;;20.22;27.78;101533.04;103447;1283;63805;-81
2024/01/13 00:30:51;;;;;;;3.90;2.30;;;;;;;20.22;27.54;101530.54;103367;1287;76213;-79
2024/01/13 00:33:16;;;;;;;5.00;2.10;;;;;;;20.22;27.72;101536.98;103382;1289;62542;-79
2024/01/13 00:35:42;;;;;;;5.40;2.10;;;;;;;20.22;27.64;101535.37;103603;1285;62734;-79
2024/01/13 00:38:08;;;;;;;5.70;2.80;;;;;;;20.22;27.75;101537.85;103595;1289;62960;-79
2024/01/13 00:40:33;;;;;;;4.70;2.10;;;;;;;20.22;27.61;101535.52;103382;1284;63238;-79
2024/01/13 00:43:00;;;;;;;3.10;1.90;;;;;;;20.23;27.60;101530.86;103643;1286;62165;-78
2024/01/13 00:45:25;;;;;;;4.30;2.50;;;;;;;20.23;27.73;101536.19;103418;1288;62104;-80
2024/01/13 00:47:51;;;;;;;3.40;2.00;;;;;;;20.23;27.57;101535.13;103416;1289;62201;-80
2024/01/13 00:50:17;;;;;;;3.80;2.10;;;;;;;20.23;27.59;101529.58;103489;1288;62270;-80
2024/01/13 00:52:43;;;;;;;3.60;2.10;;;;;;;20.23;27.62;101526.55;103423;1283;62603;-79
2024/01/13 00:55:08;;;;;;;4.20;2.20;;;;;;;20.22;27.50;101519.05;103517;1289;63084;-79
2024/01/13 00:57:34;;;;;;;3.80;2.10;;;;;;;20.23;27.56;101513.70;103625;1286;62190;-78
2024/01/13 01:00:00;;;;;;;3.40;2.10;;;;;;;20.23;27.58;101511.71;103303;1289;62098;-78
2024/01/13 01:02:25;;;;;;;4.60;2.40;;;;;;;20.23;27.62;101517.94;103591;1285;62190;-79
2024/01/13 01:04:51;;;;;;;4.70;2.20;;;;;;;20.24;27.52;101516.84;103440;1288;63287;-78
2024/01/13 01:07:17;;;;;;;3.70;2.10;;;;;;;20.24;27.70;101510.76;103420;1288;62241;-78
2024/01/13 01:09:42;;;;;;;4.50;2.30;;;;;;;20.24;27.58;101508.24;103415;1288;63293;-79
2024/01/13 01:12:08;;;;;;;3.80;2.10;;;;;;;20.24;27.50;101504.31;103296;1289;62776;-81
2024/01/13 01:14:34;;;;;;;5.20;2.40;;;;;;;20.24;27.59;101499.84;103392;1283;72612;-80
2024/01/13 01:17:00;;;;;;;6.00;2.30;;;;;;;20.24;27.51;101491.96;103444;1290;62143;-79
2024/01/13 01:19:25;;;;;;;4.50;1.90;;;;;;;20.24;27.52;101486.95;103595;1283;63460;-81
2024/01/13 01:21:51;;;;;;;3.10;1.90;;;;;;;20.25;27.54;101481.03;103636;1286;62324;-79
2024/01/13 01:24:17;;;;;;;3.70;2.10;;;;;;;20.25;27.43;101472.97;103643;1288;62243;-79
2024/01/13 01:26:43;;;;;;;3.90;2.10;;;;;;;20.25;27.55;101466.52;103492;1289;62196;-79
2024/01/13 01:29:09;;;;;;;3.30;1.90;;;;;;;20.25;27.49;101467.77;103405;1287;75184;-79
2024/01/13 01:31:34;;;;;;;4.00;2.00;;;;;;;20.25;27.46;101465.09;103456;1289;62206;-80
2024/01/13 01:34:00;;;;;;;3.20;1.90;;;;;;;20.26;27.45;101455.59;103308;1289;62186;-78
2024/01/13 01:36:26;;;;;;;3.90;2.20;;;;;;;20.26;27.46;101448.45;103433;1289;62286;-78
2024/01/13 01:38:54;;;;;;;4.60;2.10;;;;;;;20.25;27.50;101455.11;103632;1295;62193;-78
2024/01/13 01:41:19;;;;;;;3.50;2.00;;;;;;;20.26;27.42;101460.59;103756;1287;62572;-79
2024/01/13 01:43:45;;;;;;;3.60;2.10;;;;;;;20.26;27.32;101455.58;103446;1283;62338;-81
2024/01/13 01:46:12;;;;;;;3.00;1.80;;;;;;;20.26;27.44;101452.73;103640;1283;62129;-78
2024/01/13 01:48:38;;;;;;;4.70;2.20;;;;;;;20.26;27.43;101456.48;103420;1288;72534;-80
2024/01/13 01:51:09;;;;;;;3.90;2.10;;;;;;;20.26;27.25;101453.77;103404;1293;62156;-80
2024/01/13 01:53:37;;;;;;;3.70;2.10;;;;;;;20.27;27.43;101454.66;103413;1288;62197;-80
2024/01/13 01:56:05;;;;;;;3.50;2.00;;;;;;;20.27;27.26;101457.67;103422;1287;62530;-80
2024/01/13 01:58:31;;;;;;;3.30;2.00;;;;;;;20.27;27.47;101457.50;103634;1287;72506;-79
2024/01/13 02:00:57;;;;;;;3.90;2.10;;;;;;;20.27;27.44;101456.98;103455;1283;62377;-80
2024/01/13 02:03:23;;;;;;;3.40;1.90;;;;;;;20.27;27.25;101456.94;103412;1288;62267;-79
2024/01/13 02:05:51;;;;;;;5.40;1.90;;;;;;;20.27;27.23;101453.39;103454;1288;62196;-79
2024/01/13 02:08:17;;;;;;;5.20;2.20;;;;;;;20.27;27.20;101452.88;103417;1287;63356;-78
2024/01/13 02:10:43;;;;;;;2.90;1.80;;;;;;;20.27;27.36;101452.52;103242;1289;63383;-79
2024/01/13 02:13:09;;;;;;;3.80;2.00;;;;;;;20.27;27.31;101448.91;103276;1284;63368;-79
2024/01/13 02:15:35;;;;;;;3.40;2.00;;;;;;;20.27;27.17;101443.55;103447;1283;63554;-79
2024/01/13 02:18:00;;;;;;;4.50;1.90;;;;;;;20.27;27.27;101442.66;103481;1283;62486;-79
2024/01/13 02:20:27;;;;;;;3.40;1.70;;;;;;;20.28;27.35;101443.71;103434;1288;73329;-78
2024/01/13 02:22:52;;;;;;;3.30;2.00;;;;;;;20.28;27.24;101436.20;103586;1283;62225;-80
2024/01/13 02:25:18;;;;;;;4.00;1.90;;;;;;;20.28;27.30;101431.17;103509;1288;62649;-80
2024/01/13 02:27:44;;;;;;;3.00;1.80;;;;;;;20.28;27.25;101428.30;103466;1283;63427;-79
2024/01/13 02:30:11;;;;;;;4.20;1.90;;;;;;;20.27;27.24;101416.72;103368;1285;63347;-78
2024/01/13 02:32:36;;;;;;;3.10;1.80;;;;;;;20.28;27.17;101406.52;103441;1288;62175;-79
2024/01/13 02:35:02;;;;;;;3.60;1.80;;;;;;;20.28;27.17;101396.48;103309;1291;62101;-78
2024/01/13 02:37:29;;;;;;;3.20;1.70;;;;;;;20.28;27.24;101394.70;103639;1284;62990;-79
2024/01/13 02:39:55;;;;;;;3.10;1.80;;;;;;;20.28;27.27;101397.39;103658;1285;62178;-80
2024/01/13 02:42:20;;;;;;;3.30;1.90;;;;;;;20.29;27.17;101401.81;103456;1289;62573;-77
2024/01/13 02:44:46;;;;;;;3.40;1.80;;;;;;;20.29;27.14;101398.08;103619;1283;63389;-78
2024/01/13 02:47:12;;;;;;;4.10;1.80;;;;;;;20.29;27.19;101396.84;103458;1289;62204;-80
2024/01/13 02:49:37;;;;;;;3.70;1.80;;;;;;;20.29;27.12;101396.83;103428;1289;62200;-78
2024/01/13 02:52:03;;;;;;;3.30;1.90;;;;;;;20.29;27.07;101394.85;103315;1285;62672;-79
2024/01/13 02:54:29;;;;;;;4.10;1.90;;;;;;;20.29;27.04;101393.58;103642;1283;72698;-79
2024/01/13 02:56:55;;;;;;;3.00;1.70;;;;;;;20.29;27.08;101390.72;103661;1287;62686;-80
2024/01/13 02:59:20;;;;;;;4.70;2.10;;;;;;;20.29;27.09;101386.99;103593;1283;63443;-79
2024/01/13 03:01:46;;;;;;;3.40;1.80;;;;;;;20.29;27.09;101382.66;103604;1283;62625;-80
2024/01/13 03:04:12;;;;;;;3.40;2.10;;;;;;;20.29;27.06;101380.37;103443;1283;62238;-78
2024/01/13 03:06:38;;;;;;;3.10;1.60;;;;;;;20.30;27.03;101378.91;103512;1288;62197;-80
2024/01/13 03:09:05;;;;;;;3.10;1.70;;;;;;;20.30;27.03;101380.32;103439;1283;76206;-80
2024/01/13 03:11:31;;;;;;;2.70;1.60;;;;;;;20.30;26.94;101375.48;103645;1283;62476;-79
2024/01/13 03:13:58;;;;;;;2.90;1.80;;;;;;;20.29;26.98;101364.42;103517;1283;62915;-81
2024/01/13 03:16:24;;;;;;;3.70;1.80;;;;;;;20.29;27.12;101362.82;103470;1288;73679;-79
2024/01/13 03:18:49;;;;;;;3.50;1.80;;;;;;;20.30;26.90;101364.06;103235;1283;62515;-78
2024/01/13 03:21:15;;;;;;;4.10;1.80;;;;;;;20.30;26.92;101368.30;103440;1283;63384;-79
2024/01/13 03:23:45;;;;;;;3.60;1.90;;;;;;;20.30;26.87;101365.25;103225;1283;63444;-78
2024/01/13 03:26:10;;;;;;;3.10;1.70;;;;;;;20.30;26.90;101362.23;103497;1283;71415;-79
2024/01/13 03:28:38;;;;;;;2.70;1.70;;;;;;;20.31;26.93;101363.45;103444;1283;75479;-79
2024/01/13 03:31:03;;;;;;;4.50;1.70;;;;;;;20.30;26.95;101357.75;103620;1283;62222;-79
2024/01/13 03:33:29;;;;;;;3.30;1.80;;;;;;;20.31;26.91;101354.52;103444;1285;62651;-79
2024/01/13 03:35:55;;;;;;;2.90;1.70;;;;;;;20.31;26.92;101353.25;103402;1282;62551;-79
2024/01/13 03:38:20;;;;;;;3.10;1.80;;;;;;;20.31;26.89;101350.39;103639;1283;62198;-79
2024/01/13 03:40:46;;;;;;;2.50;1.70;;;;;;;20.31;26.96;101346.62;103453;1283;62588;-80
2024/01/13 03:43:12;;;;;;;3.20;2.10;;;;;;;20.31;26.99;101345.21;103557;1287;62181;-79
2024/01/13 03:45:38;;;;;;;3.50;2.00;;;;;;;20.31;26.75;101344.31;103282;1289;62231;-80
2024/01/13 03:48:04;;;;;;;4.10;2.00;;;;;;;20.32;26.77;101339.63;103668;1283;62287;-78
2024/01/13 03:50:29;;;;;;;3.00;1.70;;;;;;;20.32;26.89;101340.34;103622;1283;62089;-79
2024/01/13 03:52:55;;;;;;;3.20;1.80;;;;;;;20.31;26.72;101337.14;103456;1282;62235;-79
2024/01/13 03:55:21;;;;;;;2.70;1.80;;;;;;;20.32;26.89;101332.48;103520;1288;62286;-79
2024/01/13 03:57:46;;;;;;;3.30;1.80;;;;;;;20.32;26.78;101328.33;103481;1288;63341;-79
2024/01/13 04:00:12;;;;;;;4.50;1.80;;;;;;;20.32;26.87;101327.45;103591;1285;63396;-77
2024/01/13 04:02:38;;;;;;;5.50;2.00;;;;;;;20.32;26.76;101326.92;103632;1285;63446;-79
2024/01/13 04:05:04;;;;;;;2.70;1.80;;;;;;;20.32;26.68;101322.96;103625;1283;62174;-79
2024/01/13 04:07:30;;;;;;;2.90;1.60;;;;;;;20.32;26.73;101321.90;103483;1282;62244;-80
2024/01/13 04:09:56;;;;;;;3.30;1.80;;;;;;;20.32;26.81;101327.82;103413;1283;63375;-80
2024/01/13 04:12:21;;;;;;;3.00;1.80;;;;;;;20.32;26.74;101325.30;103475;1283;62618;-78
2024/01/13 04:14:47;;;;;;;3.60;1.70;;;;;;;20.32;26.78;101320.66;103401;1282;75100;-80
2024/01/13 04:17:13;;;;;;;3.90;1.90;;;;;;;20.32;26.74;101327.07;103584;1286;62193;-79
2024/01/13 04:19:38;;;;;;;3.20;1.60;;;;;;;20.32;26.58;101329.59;103623;1282;62188;-81
2024/01/13 04:22:04;;;;;;;3.10;1.70;;;;;;;20.32;26.77;101326.73;103440;1288;63312;-78
2024/01/13 04:24:30;;;;;;;3.70;2.00;;;;;;;20.32;26.77;101318.17;103459;1283;62098;-79
2024/01/13 04:26:56;;;;;;;3.80;1.90;;;;;;;20.32;26.66;101319.39;103246;1291;62369;-79
2024/01/13 04:29:21;;;;;;;3.60;1.90;;;;;;;20.32;26.75;101321.54;103437;1283;62100;-79
2024/01/13 04:31:47;;;;;;;2.70;1.70;;;;;;;20.32;26.60;101313.16;103634;1283;62207;-80
2024/01/13 04:34:13;;;;;;;3.60;1.80;;;;;;;20.32;26.70;101308.33;103669;1288;62207;-78
2024/01/13 04:36:41;;;;;;;3.20;1.90;;;;;;;20.32;26.76;101305.08;103389;1283;63468;-79
2024/01/13 04:39:07;;;;;;;3.50;1.80;;;;;;;20.32;26.63;101306.52;103481;1288;63422;-77
2024/01/13 04:41:32;;;;;;;4.00;2.10;;;;;;;20.32;26.70;101301.52;103416;1283;62240;-80
2024/01/13 04:43:58;;;;;;;4.00;1.90;;;;;;;20.33;26.60;101299.88;103605;1285;62196;-81
2024/01/13 04:46:24;;;;;;;3.90;1.80;;;;;;;20.33;26.57;101301.30;103431;1282;62281;-79
2024/01/13 04:48:49;;;;;;;3.10;1.80;;;;;;;20.33;26.63;101295.92;103484;1283;63449;-79
2024/01/13 04:51:16;;;;;;;4.40;2.10;;;;;;;20.33;26.64;101290.58;103302;1289;62105;-79
2024/01/13 04:53:42;;;;;;;3.70;1.80;;;;;;;20.33;26.69;101290.40;103319;1287;62127;-78
2024/01/13 04:56:08;;;;;;;4.40;2.00;;;;;;;20.33;26.52;101292.16;103299;1283;62703;-79
2024/01/13 04:58:33;;;;;;;4.40;2.00;;;;;;;20.33;26.72;101294.50;103602;1286;63227;-78
2024/01/13 05:00:59;;;;;;;5.00;2.00;;;;;;;20.33;26.58;101300.73;103427;1283;62082;-78
2024/01/13 05:03:25;;;;;;;4.80;2.10;;;;;;;20.33;26.57;101295.90;103436;1288;62203;-79
2024/01/13 05:05:52;;;;;;;3.50;1.80;;;;;;;20.33;26.59;101294.67;103465;1288;62245;-79
2024/01/13 05:08:17;;;;;;;3.60;2.00;;;;;;;20.33;26.52;101292.33;103325;1283;63384;-80
2024/01/13 05:10:43;;;;;;;4.30;2.10;;;;;;;20.33;26.59;101302.33;103415;1285;75304;-79
2024/01/13 05:13:09;;;;;;;3.60;1.90;;;;;;;20.33;26.43;101303.80;103166;1283;62190;-78
2024/01/13 05:15:35;;;;;;;4.80;2.20;;;;;;;20.33;26.55;101301.30;103296;1283;62168;-81
2024/01/13 05:18:00;;;;;;;2.90;1.80;;;;;;;20.33;26.44;101294.14;103457;1288;62249;-79
2024/01/13 05:20:26;;;;;;;4.90;2.20;;;;;;;20.33;26.49;101295.91;103595;1287;62276;-79
2024/01/13 05:22:51;;;;;;;3.90;2.10;;;;;;;20.33;26.64;101293.25;103650;1286;62774;-78
2024/01/13 05:25:17;;;;;;;3.60;2.10;;;;;;;20.34;26.48;101293.19;103464;1283;62188;-79
2024/01/13 05:27:43;;;;;;;3.80;1.90;;;;;;;20.33;26.49;101292.67;103621;1283;62223;-78
2024/01/13 05:30:09;;;;;;;4.10;2.00;;;;;;;20.34;26.42;101293.39;103465;1283;63549;-78
2024/01/13 05:32:36;;;;;;;3.90;2.10;;;;;;;20.34;26.50;101293.38;103443;1283;63284;-78
2024/01/13 05:35:02;;;;;;;4.50;2.30;;;;;;;20.34;26.51;101291.95;103205;1288;62207;-79
2024/01/13 05:37:29;;;;;;;4.60;2.10;;;;;;;20.34;26.51;101291.74;103145;1290;62115;-78
2024/01/13 05:39:54;;;;;;;3.90;2.00;;;;;;;20.34;26.56;101296.20;103161;1288;71378;-78
2024/01/13 05:42:20;;;;;;;4.60;2.10;;;;;;;20.35;26.38;101295.84;102992;1292;62185;-78
2024/01/13 05:44:46;;;;;;;4.20;2.30;;;;;;;20.34;26.40;101286.59;103030;1286;63452;-80
2024/01/13 05:47:13;;;;;;;4.70;2.00;;;;;;;20.34;26.38;101283.52;102730;1287;62216;-79
2024/01/13 05:49:39;;;;;;;4.60;2.40;;;;;;;20.34;26.39;101278.70;103021;1290;62277;-80
2024/01/13 05:52:05;;;;;;;4.50;2.30;;;;;;;20.34;26.48;101278.34;102743;1293;62272;-80
2024/01/13 05:54:31;;;;;;;3.60;2.10;;;;;;;20.34;26.43;101277.62;103155;1288;62242;-78
2024/01/13 05:56:56;;;;;;;4.40;2.60;;;;;;;20.35;26.29;101271.69;102979;1288;62264;-78
2024/01/13 05:59:22;;;;;;;3.90;2.10;;;;;;;20.35;26.38;101269.17;102939;1288;62324;-79
2024/01/13 06:01:48;;;;;;;4.10;2.00;;;;;;;20.35;26.47;101267.23;102738;1294;62161;-80
2024/01/13 06:04:13;;;;;;;5.10;2.00;;;;;;;20.35;26.33;101274.54;102717;1288;72518;-78
2024/01/13 06:06:39;;;;;;;4.20;2.20;;;;;;;20.35;26.47;101271.86;103272;1288;62849;-79
2024/01/13 06:09:05;;;;;;;3.70;2.10;;;;;;;20.35;26.27;101272.57;103458;1284;62344;-80
2024/01/13 06:11:30;;;;;;;4.50;2.30;;;;;;;20.35;26.45;101275.41;103622;1286;62178;-79
2024/01/13 06:13:56;;;;;;;3.40;2.10;;;;;;;20.34;26.41;101275.98;103649;1282;62214;-80
2024/01/13 06:16:22;;;;;;;4.20;2.30;;;;;;;20.35;26.38;101270.05;103656;1283;62261;-78
2024/01/13 06:18:48;;;;;;;3.50;2.10;;;;;;;20.35;26.25;101272.54;103465;1283;75412;-80
2024/01/13 06:21:13;;;;;;;4.80;2.30;;;;;;;20.36;26.42;101272.71;103624;1283;62277;-78
2024/01/13 06:23:39;;;;;;;3.80;2.20;;;;;;;20.35;26.39;101271.84;103451;1283;62255;-81
2024/01/13 06:26:05;;;;;;;4.30;2.30;;;;;;;20.35;26.38;101270.22;103496;1283;62194;-79
2024/01/13 06:28:31;;;;;;;4.60;2.40;;;;;;;20.35;26.28;101268.44;103303;1289;63633;-78
2024/01/13 06:30:57;;;;;;;3.90;2.20;;;;;;;20.36;26.35;101277.17;103488;1283;62955;-78
2024/01/13 06:33:24;;;;;;;4.60;2.70;;;;;;;20.36;26.30;101284.13;103212;1289;62200;-78
2024/01/13 06:35:50;;;;;;;6.10;2.70;;;;;;;20.36;26.40;101281.80;103254;1283;62206;-80
2024/01/13 06:38:17;;;;;;;3.90;2.50;;;;;;;20.36;26.29;101278.40;103601;1285;63388;-80
2024/01/13 06:40:42;;;;;;;5.00;2.40;;;;;;;20.36;26.20;101280.70;103474;1283;63369;-78
2024/01/13 06:43:10;;;;;;;4.30;2.20;;;;;;;20.36;26.36;101280.87;103232;1289;64300;-81
2024/01/13 06:45:36;;;;;;;4.30;2.60;;;;;;;20.36;26.25;101274.81;103512;1283;62193;-80
2024/01/13 06:48:02;;;;;;;5.00;2.50;;;;;;;20.36;26.33;101272.65;103460;1283;62152;-78
2024/01/13 06:50:28;;;;;;;4.70;2.30;;;;;;;20.37;26.46;101268.36;103466;1283;62773;-78
2024/01/13 06:52:53;;;;;;;3.90;2.60;;;;;;;20.36;26.25;101269.80;103489;1282;62349;-79
2024/01/13 06:55:23;;;;;;;4.50;2.50;;;;;;;20.36;26.23;101267.13;103458;1288;62187;-79
2024/01/13 06:57:52;;;;;;;4.80;2.50;;;;;;;20.36;26.36;101268.36;103272;1283;62782;-78
2024/01/13 07:00:18;;;;;;;5.20;2.70;;;;;;;20.36;26.19;101266.22;103589;1282;75267;-78
2024/01/13 07:02:44;;;;;;;4.50;2.50;;;;;;;20.37;26.21;101266.02;103461;1285;62276;-79
2024/01/13 07:05:10;;;;;;;4.00;2.50;;;;;;;20.37;26.38;101262.45;103549;1282;63347;-78
2024/01/13 07:07:36;;;;;;;4.60;2.60;;;;;;;20.36;26.22;101258.71;103291;1282;63384;-79
2024/01/13 07:10:04;;;;;;;4.00;2.50;;;;;;;20.36;26.26;101255.67;103432;1282;63354;-79
2024/01/13 07:12:30;;;;;;;4.20;2.70;;;;;;;20.36;26.23;101253.71;103695;1283;62200;-79
2024/01/13 07:14:56;;;;;;;4.80;3.00;;;;;;;20.36;26.35;101250.83;103597;1283;63358;-82
2024/01/13 07:17:22;;;;;;;4.70;2.50;;;;;;;20.36;26.21;101253.17;103626;1282;62628;-79
2024/01/13 07:19:47;;;;;;;4.70;2.70;;;;;;;20.36;26.36;101253.70;103227;1289;62184;-78
2024/01/13 07:22:13;;;;;;;5.30;3.00;;;;;;;20.36;26.18;101249.98;103643;1285;62129;-79
2024/01/13 07:24:39;;;;;;;4.20;2.50;;;;;;;20.36;26.16;101253.00;103742;1282;62300;-80
2024/01/13 07:27:04;;;;;;;5.30;2.70;;;;;;;20.36;26.19;101251.54;103131;1288;62235;-77
2024/01/13 07:29:30;;;;;;;5.60;2.70;;;;;;;20.37;26.33;101256.92;103179;1290;62702;-79
2024/01/13 07:31:56;;;;;;;3.50;2.20;;;;;;;20.37;26.21;101263.70;103517;1283;62446;-79
2024/01/13 07:34:22;;;;;;;5.40;2.70;;;;;;;20.38;26.16;101270.62;103477;1283;62562;-78
2024/01/13 07:36:48;;;;;;;5.90;2.90;;;;;;;20.37;26.14;101275.08;103614;1283;62124;-78
2024/01/13 07:39:13;;;;;;;5.30;2.60;;;;;;;20.38;26.24;101276.16;103006;1283;860594;-78
2024/01/13 07:41:39;;;;;;;5.60;2.60;;;;;;;20.38;26.17;101277.20;103434;1282;71593;-80
2024/01/13 07:44:06;;;;;;;4.50;2.80;;;;;;;20.38;26.27;101274.68;103593;1285;62101;-78
2024/01/13 07:46:32;;;;;;;5.00;3.00;;;;;;;20.38;26.20;101269.69;103468;1282;62775;-79
2024/01/13 07:48:58;;;;;;;4.80;2.60;;;;;;;20.39;26.38;101265.36;103345;1291;62249;-80
2024/01/13 07:51:24;;;;;;;6.00;2.60;;;;;;;20.39;26.15;101261.05;103436;1282;62191;-78
2024/01/13 07:53:50;;;;;;;5.10;2.80;;;;;;;20.39;26.19;101254.98;103275;1283;63505;-77
2024/01/13 07:56:16;;;;;;;6.20;2.80;;;;;;;20.39;26.15;101249.59;103478;1283;62627;-79
2024/01/13 07:58:46;;;;;;;5.00;2.90;;;;;;;20.39;26.12;101252.64;103471;1288;62140;-79
2024/01/13 08:01:11;;;;;;;;;;;;;;;20.40;26.23;101247.07;103248;1289;72505;-79
2024/01/13 08:03:37;;;;;;;4.90;2.70;;;;;;;20.38;26.23;101243.08;103665;1282;62733;-78
2024/01/13 08:06:03;;;;;;;4.90;3.00;;;;;;;20.39;26.25;101234.59;103431;1283;62210;-78
2024/01/13 08:08:29;;;;;;;4.90;2.60;;;;;;;20.40;26.16;101235.29;103473;1283;62553;-79
2024/01/13 08:10:55;;;;;;;4.80;2.90;;;;;;;20.39;26.23;101233.14;103672;1283;62731;-78
2024/01/13 08:13:21;;;;;;;4.60;2.70;;;;;;;20.40;26.33;101238.48;103214;1282;62089;-79
2024/01/13 08:15:47;;;;;;;6.00;3.20;;;;;;;20.40;26.22;101247.55;103434;1288;62254;-78
2024/01/13 08:18:13;;;;;;;5.30;2.90;;;;;;;20.41;26.12;101256.11;103605;1282;62255;-79
2024/01/13 08:20:39;;;;;;;5.10;3.10;;;;;;;20.41;26.23;101256.08;103637;1283;62191;-79
2024/01/13 08:23:05;;;;;;;5.30;2.80;;;;;;;20.41;26.28;101256.44;103288;1283;63324;-79
2024/01/13 08:25:31;;;;;;;5.20;3.10;;;;;;;20.42;26.18;101259.10;103615;1282;62177;-78
2024/01/13 08:27:57;;;;;;;5.10;3.10;;;;;;;20.42;26.25;101258.16;103640;1282;62693;-79
2024/01/13 08:30:22;;;;;;;5.10;3.10;;;;;;;20.42;26.16;101252.98;103427;1282;62186;-79
2024/01/13 08:32:49;;;;;;;5.10;3.20;;;;;;;20.42;26.15;101247.77;103217;1283;62179;-80
2024/01/13 08:35:15;;;;;;;6.50;3.20;;;;;;;20.43;26.37;101254.54;103290;1282;62783;-79
2024/01/13 08:37:41;;;;;;;5.40;3.60;;;;;;;20.44;26.14;101257.19;103643;1283;75249;-78
2024/01/13 08:40:09;;;;;;;5.90;3.40;;;;;;;20.44;26.20;101263.27;103442;1282;63320;-79
2024/01/13 08:42:37;;;;;;;6.50;3.50;;;;;;;20.45;26.18;101261.05;103702;1283;62314;-78
2024/01/13 08:45:04;;;;;;;5.60;3.50;;;;;;;20.45;26.22;101256.21;103439;1287;73263;-78
2024/01/13 08:47:31;;;;;;;5.60;3.80;;;;;;;20.45;26.15;101253.35;103477;1282;75249;-78
2024/01/13 08:49:57;;;;;;;6.00;3.60;;;;;;;20.46;26.07;101247.06;103395;1282;62165;-80
2024/01/13 08:52:23;;;;;;;6.70;4.00;;;;;;;20.46;26.32;101243.83;103338;1283;63282;-79
2024/01/13 08:54:48;;;;;;;6.90;4.10;;;;;;;20.46;26.29;101243.45;103602;1282;62133;-81
2024/01/13 08:57:14;;;;;;;6.50;4.10;;;;;;;20.47;26.28;101246.11;103387;1283;62165;-80
2024/01/13 08:59:40;;;;;;;6.40;4.20;;;;;;;20.48;26.30;101244.81;103291;1282;62174;-80
2024/01/13 09:02:06;;;;;;;7.20;4.30;;;;;;;20.48;26.24;101239.78;103335;1285;63289;-79
2024/01/13 09:04:32;;;;;;;7.70;4.60;;;;;;;20.48;26.25;101244.95;103201;1283;62271;-78
2024/01/13 09:06:58;;;;;;;7.30;4.70;;;;;;;20.49;26.30;101249.92;103229;1290;62067;-80
2024/01/13 09:09:23;;;;;;;7.40;4.60;;;;;;;20.49;26.22;101244.15;103292;1286;63268;-78
2024/01/13 09:11:49;;;;;;;8.10;4.80;;;;;;;20.49;26.18;101237.55;103228;1286;62220;-80
2024/01/13 09:14:16;;;;;;;10.30;5.10;;;;;;;20.49;26.31;101231.08;103174;1285;62185;-78
2024/01/13 09:16:43;;;;;;;8.20;4.70;;;;;;;20.49;26.29;101225.71;103162;1291;63194;-78
2024/01/13 09:19:09;;;;;;;8.30;5.30;;;;;;;20.50;26.26;101233.37;103179;1286;62255;-80
2024/01/13 09:21:35;;;;;;;7.60;5.00;;;;;;;20.51;26.16;101226.38;103180;1286;62361;-78
2024/01/13 09:24:01;;;;;;;8.20;5.40;;;;;;;20.51;26.20;101222.60;103189;1285;62353;-79
2024/01/13 09:26:27;;;;;;;7.60;5.10;;;;;;;20.51;26.32;101219.91;103212;1290;62385;-78
2024/01/13 09:28:53;;;;;;;7.70;5.00;;;;;;;20.52;26.21;101218.63;103228;1290;72355;-77
2024/01/13 09:31:19;;;;;;;7.40;4.90;;;;;;;20.51;26.33;101217.03;103141;1286;62361;-79
2024/01/13 09:33:45;;;;;;;6.90;4.90;;;;;;;20.52;26.30;101216.98;103147;1289;62417;-79
2024/01/13 09:36:12;;;;;;;8.80;5.80;;;;;;;20.52;26.19;101214.27;103194;1285;63471;-80
2024/01/13 09:38:38;;;;;;;8.40;5.50;;;;;;;20.52;26.12;101210.75;103169;1288;62624;-79
2024/01/13 09:41:03;;;;;;;9.30;5.50;;;;;;;20.51;26.17;101207.02;103166;1286;62222;-78
2024/01/13 09:43:36;;;;;;;9.10;5.80;;;;;;;20.52;26.26;101208.77;103293;1288;62369;-80
2024/01/13 09:46:02;;;;;;;7.90;5.40;;;;;;;20.52;26.27;101199.48;103270;1286;62221;-77
2024/01/13 09:48:28;;;;;;;8.40;5.80;;;;;;;20.52;26.32;101196.61;103313;1289;62554;-79
2024/01/13 09:50:53;;;;;;;8.30;5.70;;;;;;;20.52;26.24;101197.84;103233;1291;62132;-79
2024/01/13 09:53:32;;;;;;;8.60;5.90;;;;;;;20.53;26.33;101188.70;103390;1288;62143;-79
2024/01/13 09:56:03;;;;;;;9.40;6.10;;;;;;;20.53;26.19;101181.17;103633;1282;62197;-78
2024/01/13 09:58:29;;;;;;;9.10;6.30;;;;;;;20.53;26.42;101186.15;103886;1282;72599;-79
2024/01/13 10:00:55;;;;;;;10.00;6.40;;;;;;;20.54;26.23;101185.73;103246;1291;62190;-78
2024/01/13 10:03:21;;;;;;;10.00;6.70;;;;;;;20.54;26.30;101185.37;103531;1283;62257;-78
2024/01/13 10:05:49;;;;;;;10.40;6.50;;;;;;;20.55;26.23;101186.41;103931;1283;62162;-77
2024/01/13 10:08:15;;;;;;;9.70;6.30;;;;;;;20.56;26.15;101184.37;103711;1282;72191;-79
2024/01/13 10:10:41;;;;;;;9.30;6.20;;;;;;;20.56;26.22;101183.84;103574;1283;62434;-79
2024/01/13 10:13:07;;;;;;;8.30;6.30;;;;;;;20.56;26.24;101186.33;103336;1283;62701;-79
2024/01/13 10:15:35;;;;;;;9.80;6.90;;;;;;;20.57;26.29;101186.48;103540;1283;62184;-79
2024/01/13 10:18:01;;;;;;;11.80;7.60;;;;;;;20.57;26.30;101185.94;103390;1283;63430;-78
2024/01/13 10:20:27;;;;;;;10.20;6.70;;;;;;;20.57;26.38;101182.54;103376;1283;62610;-80
2024/01/13 10:22:53;;;;;;;10.30;7.00;;;;;;;20.57;26.06;101181.42;103532;1285;62321;-78
2024/01/13 10:25:18;;;;;;;10.40;7.20;;;;;;;20.57;26.19;101183.92;103573;1283;62175;-80
2024/01/13 10:27:45;;;;;;;9.80;6.80;;;;;;;20.58;26.25;101178.71;103539;1283;63376;-79
2024/01/13 10:30:13;;;;;;;10.10;7.40;;;;;;;20.58;26.24;101171.55;103703;1282;62683;-79
2024/01/13 10:32:41;;;;;;;10.30;6.80;;;;;;;20.58;26.20;101164.41;103577;1286;62161;-78
2024/01/13 10:35:07;;;;;;;10.70;7.50;;;;;;;20.58;26.21;101162.08;103769;1283;62188;-78
2024/01/13 10:37:34;;;;;;;12.50;7.50;;;;;;;20.58;26.22;101154.73;103529;1287;62213;-79
2024/01/13 10:40:00;;;;;;;11.50;7.40;;;;;;;20.59;26.15;101147.52;103552;1283;76164;-79
2024/01/13 10:42:27;;;;;;;12.50;7.80;;;;;;;20.59;26.25;101150.02;103562;1283;63348;-78
2024/01/13 10:44:56;;;;;;;10.60;7.40;;;;;;;20.59;26.13;101151.98;103520;1287;62152;-78
2024/01/13 10:47:25;;;;;;;;;;;;;;;20.60;26.13;101150.34;103777;1283;72440;-79
2024/01/13 10:49:52;;;;;;;10.90;7.20;;;;;;;20.58;26.15;101149.75;103624;1282;75250;-79
2024/01/13 10:52:25;;;;;;;13.20;7.50;;;;;;;20.59;26.15;101147.73;103765;1284;62124;-80
2024/01/13 10:54:51;;;;;;;12.00;8.20;;;;;;;20.59;26.27;101142.67;103772;1282;62130;-77
2024/01/13 10:57:17;;;;;;;12.20;7.80;;;;;;;20.60;26.16;101139.08;103501;1283;62384;-81
2024/01/13 10:59:43;;;;;;;10.60;7.40;;;;;;;20.60;26.27;101131.38;103523;1281;62181;-79
2024/01/13 11:02:11;;;;;;;11.90;8.50;;;;;;;20.61;26.18;101135.06;103591;1288;62213;-80
2024/01/13 11:04:38;;;;;;;12.20;8.30;;;;;;;20.61;26.21;101131.67;103626;1283;62245;-79
2024/01/13 11:07:04;;;;;;;12.00;8.10;;;;;;;20.61;26.27;101129.15;103302;1283;62201;-78
2024/01/13 11:09:29;;;;;;;11.70;8.10;;;;;;;20.62;26.23;101127.67;103577;1283;63361;-79
2024/01/13 11:12:08;;;;;;;12.20;7.90;;;;;;;20.63;26.31;101123.73;103742;1283;62197;-80